sensor_id;sensor_type;location;lat;lon;timestamp;pressure;altitude;pressure_sealevel;temperature;humidity
50774;BME280;36745;48.544;8.918;2023-04-07T00:00:10;97347.44;;;7.18;75.30
50774;BME280;36745;48.544;8.918;2023-04-07T00:03:31;97345.78;;;7.24;74.76
50774;BME280;36745;48.544;8.918;2023-04-07T00:06:51;97341.84;;;7.25;74.58
50774;BME280;36745;48.544;8.918;2023-04-07T00:10:10;97340.72;;;7.23;74.71
50774;BME280;36745;48.544;8.918;2023-04-07T00:13:30;97333.69;;;7.22;74.70
50774;BME280;36745;48.544;8.918;2023-04-07T00:16:50;97326.66;;;7.21;75.17
50774;BME280;36745;48.544;8.918;2023-04-07T00:20:11;97330.25;;;7.18;75.04
50774;BME280;36745;48.544;8.918;2023-04-07T00:23:31;97331.06;;;7.14;74.95
50774;BME280;36745;48.544;8.918;2023-04-07T00:26:51;97327.53;;;7.14;74.99
50774;BME280;36745;48.544;8.918;2023-04-07T00:30:10;97335.00;;;7.13;75.42
50774;BME280;36745;48.544;8.918;2023-04-07T00:33:31;97322.50;;;7.12;75.96
50774;BME280;36745;48.544;8.918;2023-04-07T00:36:50;97320.34;;;7.00;75.71
50774;BME280;36745;48.544;8.918;2023-04-07T00:40:10;97312.59;;;6.95;75.84
50774;BME280;36745;48.544;8.918;2023-04-07T00:43:30;97312.69;;;6.88;76.37
50774;BME280;36745;48.544;8.918;2023-04-07T00:46:50;97308.97;;;6.75;77.84
50774;BME280;36745;48.544;8.918;2023-04-07T00:50:10;97301.50;;;6.79;77.55
50774;BME280;36745;48.544;8.918;2023-04-07T00:53:30;97296.50;;;6.74;77.90
50774;BME280;36745;48.544;8.918;2023-04-07T00:56:50;97285.16;;;6.72;78.55
50774;BME280;36745;48.544;8.918;2023-04-07T01:00:11;97284.31;;;6.75;78.53
50774;BME280;36745;48.544;8.918;2023-04-07T01:03:35;97276.19;;;6.71;78.38
50774;BME280;36745;48.544;8.918;2023-04-07T01:07:05;97276.09;;;6.75;78.35
50774;BME280;36745;48.544;8.918;2023-04-07T01:10:36;97267.88;;;6.75;78.32
50774;BME280;36745;48.544;8.918;2023-04-07T01:14:01;97265.28;;;6.68;79.07
50774;BME280;36745;48.544;8.918;2023-04-07T01:17:24;97256.69;;;6.66;79.43
50774;BME280;36745;48.544;8.918;2023-04-07T01:20:44;97259.03;;;6.67;79.09
50774;BME280;36745;48.544;8.918;2023-04-07T01:31:22;97255.50;;;6.67;79.24
50774;BME280;36745;48.544;8.918;2023-04-07T01:34:47;97250.88;;;6.64;79.55
50774;BME280;36745;48.544;8.918;2023-04-07T01:38:08;97252.00;;;6.66;79.63
50774;BME280;36745;48.544;8.918;2023-04-07T01:41:29;97244.50;;;6.70;79.29
50774;BME280;36745;48.544;8.918;2023-04-07T01:44:49;97245.25;;;6.71;78.94
50774;BME280;36745;48.544;8.918;2023-04-07T01:48:11;97230.75;;;6.74;78.20
50774;BME280;36745;48.544;8.918;2023-04-07T01:51:31;97225.44;;;6.63;80.37
50774;BME280;36745;48.544;8.918;2023-04-07T01:54:53;97226.22;;;6.64;81.94
50774;BME280;36745;48.544;8.918;2023-04-07T01:58:13;97237.59;;;6.62;81.95
50774;BME280;36745;48.544;8.918;2023-04-07T02:01:33;97227.72;;;6.68;81.62
50774;BME280;36745;48.544;8.918;2023-04-07T02:05:04;97228.97;;;6.64;81.40
50774;BME280;36745;48.544;8.918;2023-04-07T02:08:29;97228.59;;;6.62;82.41
50774;BME280;36745;48.544;8.918;2023-04-07T02:11:51;97230.16;;;6.63;82.56
50774;BME280;36745;48.544;8.918;2023-04-07T02:15:14;97226.22;;;6.64;82.96
50774;BME280;36745;48.544;8.918;2023-04-07T02:18:35;97216.69;;;6.72;82.70
50774;BME280;36745;48.544;8.918;2023-04-07T02:21:56;97225.75;;;6.69;81.27
50774;BME280;36745;48.544;8.918;2023-04-07T02:25:24;97216.78;;;6.65;81.81
50774;BME280;36745;48.544;8.918;2023-04-07T02:28:44;97219.13;;;6.66;82.51
50774;BME280;36745;48.544;8.918;2023-04-07T02:32:05;97219.13;;;6.66;83.05
50774;BME280;36745;48.544;8.918;2023-04-07T02:35:25;97211.22;;;6.72;82.92
50774;BME280;36745;48.544;8.918;2023-04-07T02:38:44;97202.22;;;6.71;83.50
50774;BME280;36745;48.544;8.918;2023-04-07T02:42:04;97203.84;;;6.69;83.65
50774;BME280;36745;48.544;8.918;2023-04-07T02:45:24;97198.09;;;6.60;84.06
50774;BME280;36745;48.544;8.918;2023-04-07T02:48:44;97197.31;;;6.59;83.68
50774;BME280;36745;48.544;8.918;2023-04-07T02:52:03;97200.44;;;6.61;84.14
50774;BME280;36745;48.544;8.918;2023-04-07T02:55:23;97189.84;;;6.63;83.62
50774;BME280;36745;48.544;8.918;2023-04-07T02:58:43;97198.34;;;6.69;83.75
50774;BME280;36745;48.544;8.918;2023-04-07T03:02:03;97201.91;;;6.66;84.29
50774;BME280;36745;48.544;8.918;2023-04-07T03:05:22;97192.16;;;6.65;84.01
50774;BME280;36745;48.544;8.918;2023-04-07T03:08:45;97191.81;;;6.63;84.90
50774;BME280;36745;48.544;8.918;2023-04-07T03:12:09;97187.03;;;6.67;84.75
50774;BME280;36745;48.544;8.918;2023-04-07T03:15:33;97186.66;;;6.65;84.88
50774;BME280;36745;48.544;8.918;2023-04-07T03:18:55;97177.66;;;6.64;84.22
50774;BME280;36745;48.544;8.918;2023-04-07T03:22:21;97170.72;;;6.60;84.31
50774;BME280;36745;48.544;8.918;2023-04-07T03:25:42;97169.16;;;6.59;85.71
50774;BME280;36745;48.544;8.918;2023-04-07T03:29:02;97166.41;;;6.59;85.61
50774;BME280;36745;48.544;8.918;2023-04-07T03:32:22;97169.16;;;6.59;85.75
50774;BME280;36745;48.544;8.918;2023-04-07T03:35:42;97168.44;;;6.55;85.16
50774;BME280;36745;48.544;8.918;2023-04-07T03:39:01;97166.19;;;6.50;85.63
50774;BME280;36745;48.544;8.918;2023-04-07T03:42:21;97171.66;;;6.50;85.91
50774;BME280;36745;48.544;8.918;2023-04-07T03:45:41;97165.97;;;6.41;86.68
50774;BME280;36745;48.544;8.918;2023-04-07T03:49:01;97164.81;;;6.38;86.70
50774;BME280;36745;48.544;8.918;2023-04-07T03:52:21;97164.00;;;6.41;86.68
50774;BME280;36745;48.544;8.918;2023-04-07T03:55:41;97153.06;;;6.41;86.77
50774;BME280;36745;48.544;8.918;2023-04-07T03:59:01;97149.94;;;6.39;87.26
50774;BME280;36745;48.544;8.918;2023-04-07T04:02:21;97159.31;;;6.42;87.18
50774;BME280;36745;48.544;8.918;2023-04-07T04:05:41;97148.34;;;6.42;87.13
50774;BME280;36745;48.544;8.918;2023-04-07T04:09:01;97141.31;;;6.41;86.86
50774;BME280;36745;48.544;8.918;2023-04-07T04:12:21;97128.81;;;6.40;87.65
50774;BME280;36745;48.544;8.918;2023-04-07T04:15:41;97134.28;;;6.40;87.94
50774;BME280;36745;48.544;8.918;2023-04-07T04:19:00;97136.66;;;6.38;87.89
50774;BME280;36745;48.544;8.918;2023-04-07T04:22:20;97136.66;;;6.38;88.11
50774;BME280;36745;48.544;8.918;2023-04-07T04:25:40;97148.47;;;6.35;87.64
50774;BME280;36745;48.544;8.918;2023-04-07T04:29:00;97148.25;;;6.22;88.40
50774;BME280;36745;48.544;8.918;2023-04-07T04:32:21;97142.84;;;6.18;88.54
50774;BME280;36745;48.544;8.918;2023-04-07T04:35:40;97148.34;;;6.18;88.49
50774;BME280;36745;48.544;8.918;2023-04-07T04:39:00;97145.97;;;6.20;88.27
50774;BME280;36745;48.544;8.918;2023-04-07T04:42:20;97144.75;;;6.21;88.58
50774;BME280;36745;48.544;8.918;2023-04-07T04:45:40;97140.91;;;6.19;88.36
50774;BME280;36745;48.544;8.918;2023-04-07T04:49:01;97137.00;;;6.16;87.74
50774;BME280;36745;48.544;8.918;2023-04-07T04:52:20;97144.91;;;6.11;88.46
50774;BME280;36745;48.544;8.918;2023-04-07T04:55:40;97145.69;;;6.11;87.75
50774;BME280;36745;48.544;8.918;2023-04-07T04:59:05;97140.53;;;5.94;88.53
50774;BME280;36745;48.544;8.918;2023-04-07T05:02:25;97142.09;;;5.91;88.72
50774;BME280;36745;48.544;8.918;2023-04-07T05:05:46;97143.66;;;5.92;89.24
50774;BME280;36745;48.544;8.918;2023-04-07T05:09:06;97139.00;;;5.89;89.35
50774;BME280;36745;48.544;8.918;2023-04-07T05:12:26;97143.97;;;5.98;89.00
50774;BME280;36745;48.544;8.918;2023-04-07T05:15:46;97154.03;;;6.04;88.05
50774;BME280;36745;48.544;8.918;2023-04-07T05:19:06;97156.03;;;6.00;88.02
50774;BME280;36745;48.544;8.918;2023-04-07T05:22:26;97151.88;;;5.92;89.17
50774;BME280;36745;48.544;8.918;2023-04-07T05:25:45;97149.84;;;5.96;89.49
50774;BME280;36745;48.544;8.918;2023-04-07T05:29:05;97161.41;;;6.07;89.33
50774;BME280;36745;48.544;8.918;2023-04-07T05:32:30;97145.06;;;6.04;89.33
50774;BME280;36745;48.544;8.918;2023-04-07T05:35:49;97161.50;;;6.00;89.65
50774;BME280;36745;48.544;8.918;2023-04-07T05:39:09;97163.06;;;6.01;89.96
50774;BME280;36745;48.544;8.918;2023-04-07T05:42:29;97163.66;;;6.12;89.02
50774;BME280;36745;48.544;8.918;2023-04-07T05:45:49;97149.59;;;6.14;90.09
50774;BME280;36745;48.544;8.918;2023-04-07T05:49:09;97152.19;;;6.21;90.47
50774;BME280;36745;48.544;8.918;2023-04-07T05:52:29;97145.00;;;6.30;90.01
50774;BME280;36745;48.544;8.918;2023-04-07T05:55:51;97148.63;;;6.24;90.06
50774;BME280;36745;48.544;8.918;2023-04-07T05:59:11;97143.22;;;6.20;90.92
50774;BME280;36745;48.544;8.918;2023-04-07T06:02:30;97135.19;;;6.33;90.44
50774;BME280;36745;48.544;8.918;2023-04-07T06:05:50;97145.25;;;6.40;90.84
50774;BME280;36745;48.544;8.918;2023-04-07T06:09:10;97147.03;;;6.50;90.79
50774;BME280;36745;48.544;8.918;2023-04-07T06:12:30;97143.69;;;6.62;90.83
50774;BME280;36745;48.544;8.918;2023-04-07T06:15:50;97142.31;;;6.73;89.98
50774;BME280;36745;48.544;8.918;2023-04-07T06:19:10;97147.94;;;6.86;90.01
50774;BME280;36745;48.544;8.918;2023-04-07T06:22:30;97151.88;;;6.85;90.17
50774;BME280;36745;48.544;8.918;2023-04-07T06:25:49;97149.56;;;7.03;90.74
50774;BME280;36745;48.544;8.918;2023-04-07T06:29:11;97146.78;;;7.27;91.00
50774;BME280;36745;48.544;8.918;2023-04-07T06:32:31;97143.00;;;7.92;92.29
50774;BME280;36745;48.544;8.918;2023-04-07T06:35:52;97147.22;;;8.78;92.41
50774;BME280;36745;48.544;8.918;2023-04-07T06:39:17;97143.69;;;9.35;89.77
50774;BME280;36745;48.544;8.918;2023-04-07T06:42:37;97148.50;;;9.73;86.35
50774;BME280;36745;48.544;8.918;2023-04-07T06:45:56;97145.09;;;9.68;84.04
50774;BME280;36745;48.544;8.918;2023-04-07T06:49:20;97144.09;;;9.21;82.44
50774;BME280;36745;48.544;8.918;2023-04-07T06:52:40;97138.84;;;8.98;81.78
50774;BME280;36745;48.544;8.918;2023-04-07T06:56:07;97142.84;;;8.64;81.40
50774;BME280;36745;48.544;8.918;2023-04-07T06:59:27;97143.66;;;8.49;82.31
50774;BME280;36745;48.544;8.918;2023-04-07T07:02:46;97148.72;;;8.50;82.00
50774;BME280;36745;48.544;8.918;2023-04-07T07:06:06;97147.66;;;8.60;82.13
50774;BME280;36745;48.544;8.918;2023-04-07T07:09:26;97153.41;;;8.66;81.47
50774;BME280;36745;48.544;8.918;2023-04-07T07:12:46;97153.84;;;8.64;81.70
50774;BME280;36745;48.544;8.918;2023-04-07T07:16:06;97148.34;;;8.64;81.05
50774;BME280;36745;48.544;8.918;2023-04-07T07:19:26;97139.31;;;8.80;80.72
50774;BME280;36745;48.544;8.918;2023-04-07T07:22:46;97144.53;;;8.91;79.94
50774;BME280;36745;48.544;8.918;2023-04-07T07:26:05;97141.78;;;8.91;80.11
50774;BME280;36745;48.544;8.918;2023-04-07T07:29:25;97148.22;;;9.13;80.21
50774;BME280;36745;48.544;8.918;2023-04-07T07:32:45;97146.25;;;9.42;79.50
50774;BME280;36745;48.544;8.918;2023-04-07T07:36:06;97143.63;;;9.51;78.87
50774;BME280;36745;48.544;8.918;2023-04-07T07:40:04;97150.47;;;9.59;79.49
50774;BME280;36745;48.544;8.918;2023-04-07T07:43:24;97142.13;;;9.76;78.04
50774;BME280;36745;48.544;8.918;2023-04-07T07:46:44;97144.53;;;9.99;78.55
50774;BME280;36745;48.544;8.918;2023-04-07T07:50:04;97145.25;;;10.28;78.18
50774;BME280;36745;48.544;8.918;2023-04-07T07:53:23;97138.00;;;10.69;78.18
50774;BME280;36745;48.544;8.918;2023-04-07T07:56:43;97138.44;;;11.02;77.20
50774;BME280;36745;48.544;8.918;2023-04-07T08:00:04;97140.81;;;11.12;76.76
50774;BME280;36745;48.544;8.918;2023-04-07T08:03:24;97147.25;;;11.09;73.58
50774;BME280;36745;48.544;8.918;2023-04-07T08:06:43;97143.81;;;10.83;73.58
50774;BME280;36745;48.544;8.918;2023-04-07T08:10:04;97148.28;;;11.24;74.20
50774;BME280;36745;48.544;8.918;2023-04-07T08:13:24;97149.38;;;11.27;73.22
50774;BME280;36745;48.544;8.918;2023-04-07T08:16:44;97150.19;;;11.58;73.58
50774;BME280;36745;48.544;8.918;2023-04-07T08:20:04;97152.19;;;11.58;71.59
50774;BME280;36745;48.544;8.918;2023-04-07T08:23:24;97144.81;;;11.55;71.58
50774;BME280;36745;48.544;8.918;2023-04-07T08:26:44;97149.81;;;11.69;70.87
50774;BME280;36745;48.544;8.918;2023-04-07T08:30:05;97153.94;;;11.95;71.83
50774;BME280;36745;48.544;8.918;2023-04-07T08:33:27;97148.25;;;11.90;68.84
50774;BME280;36745;48.544;8.918;2023-04-07T08:36:48;97147.56;;;12.07;69.88
50774;BME280;36745;48.544;8.918;2023-04-07T08:40:08;97143.50;;;11.90;68.57
50774;BME280;36745;48.544;8.918;2023-04-07T08:43:28;97150.56;;;11.91;68.77
50774;BME280;36745;48.544;8.918;2023-04-07T08:46:50;97146.06;;;12.15;68.28
50774;BME280;36745;48.544;8.918;2023-04-07T08:50:10;97140.91;;;12.36;69.04
50774;BME280;36745;48.544;8.918;2023-04-07T08:53:42;97142.78;;;12.48;65.73
50774;BME280;36745;48.544;8.918;2023-04-07T08:57:02;97141.47;;;12.22;64.16
50774;BME280;36745;48.544;8.918;2023-04-07T09:00:22;97143.94;;;12.19;65.76
50774;BME280;36745;48.544;8.918;2023-04-07T09:03:43;97142.00;;;12.47;65.91
50774;BME280;36745;48.544;8.918;2023-04-07T09:07:04;97143.75;;;12.81;66.19
50774;BME280;36745;48.544;8.918;2023-04-07T09:10:23;97142.91;;;13.21;65.85
50774;BME280;36745;48.544;8.918;2023-04-07T09:13:43;97143.81;;;13.18;64.77
50774;BME280;36745;48.544;8.918;2023-04-07T09:17:03;97145.94;;;13.04;63.28
50774;BME280;36745;48.544;8.918;2023-04-07T09:20:23;97141.28;;;13.74;64.78
50774;BME280;36745;48.544;8.918;2023-04-07T09:23:43;97140.44;;;14.43;61.23
50774;BME280;36745;48.544;8.918;2023-04-07T09:27:15;97146.50;;;13.81;60.23
50774;BME280;36745;48.544;8.918;2023-04-07T09:30:36;97144.50;;;13.73;61.40
50774;BME280;36745;48.544;8.918;2023-04-07T09:33:56;97142.13;;;13.29;58.36
50774;BME280;36745;48.544;8.918;2023-04-07T09:37:21;97145.31;;;12.73;58.54
50774;BME280;36745;48.544;8.918;2023-04-07T09:40:41;97144.41;;;13.03;59.06
50774;BME280;36745;48.544;8.918;2023-04-07T09:44:01;97140.41;;;13.23;58.12
50774;BME280;36745;48.544;8.918;2023-04-07T09:47:25;97146.06;;;13.74;57.60
50774;BME280;36745;48.544;8.918;2023-04-07T09:50:47;97142.28;;;13.17;57.36
50774;BME280;36745;48.544;8.918;2023-04-07T09:54:10;97136.72;;;12.98;57.54
50774;BME280;36745;48.544;8.918;2023-04-07T09:57:30;97129.03;;;13.30;58.66
50774;BME280;36745;48.544;8.918;2023-04-07T10:00:50;97131.78;;;13.02;56.90
50774;BME280;36745;48.544;8.918;2023-04-07T10:04:10;97131.22;;;13.17;57.50
50774;BME280;36745;48.544;8.918;2023-04-07T10:07:30;97136.25;;;13.45;57.85
50774;BME280;36745;48.544;8.918;2023-04-07T10:10:49;97133.00;;;13.65;57.05
50774;BME280;36745;48.544;8.918;2023-04-07T10:14:10;97141.03;;;13.36;55.86
50774;BME280;36745;48.544;8.918;2023-04-07T10:17:32;97139.94;;;12.97;56.83
50774;BME280;36745;48.544;8.918;2023-04-07T10:20:52;97146.19;;;12.61;57.14
50774;BME280;36745;48.544;8.918;2023-04-07T10:27:58;97142.56;;;11.93;58.12
50774;BME280;36745;48.544;8.918;2023-04-07T10:31:19;97158.16;;;11.78;59.51
50774;BME280;36745;48.544;8.918;2023-04-07T10:38:12;97153.22;;;12.04;60.02
50774;BME280;36745;48.544;8.918;2023-04-07T10:44:54;97148.03;;;11.53;61.54
50774;BME280;36745;48.544;8.918;2023-04-07T10:48:16;97157.75;;;11.89;61.25
50774;BME280;36745;48.544;8.918;2023-04-07T10:51:36;97154.81;;;11.61;61.71
50774;BME280;36745;48.544;8.918;2023-04-07T10:59:13;97167.47;;;11.06;59.55
50774;BME280;36745;48.544;8.918;2023-04-07T11:02:34;97156.81;;;10.83;59.69
50774;BME280;36745;48.544;8.918;2023-04-07T11:06:07;97167.75;;;11.08;59.41
50774;BME280;36745;48.544;8.918;2023-04-07T11:09:27;97160.41;;;11.49;59.56
50774;BME280;36745;48.544;8.918;2023-04-07T11:12:58;97153.22;;;11.29;57.32
50774;BME280;36745;48.544;8.918;2023-04-07T11:16:18;97160.09;;;11.47;58.78
50774;BME280;36745;48.544;8.918;2023-04-07T11:19:54;97153.69;;;11.50;58.37
50774;BME280;36745;48.544;8.918;2023-04-07T11:23:16;97151.84;;;11.56;58.95
50774;BME280;36745;48.544;8.918;2023-04-07T11:26:40;97148.66;;;11.35;58.55
50774;BME280;36745;48.544;8.918;2023-04-07T11:30:00;97149.38;;;11.27;58.00
50774;BME280;36745;48.544;8.918;2023-04-07T11:33:29;97147.50;;;11.24;58.54
50774;BME280;36745;48.544;8.918;2023-04-07T11:36:49;97162.75;;;10.94;57.93
50774;BME280;36745;48.544;8.918;2023-04-07T11:40:09;97158.78;;;10.95;58.24
50774;BME280;36745;48.544;8.918;2023-04-07T11:43:29;97157.06;;;10.76;58.34
50774;BME280;36745;48.544;8.918;2023-04-07T11:50:16;97161.75;;;11.22;58.27
50774;BME280;36745;48.544;8.918;2023-04-07T11:53:56;97160.78;;;11.60;57.56
50774;BME280;36745;48.544;8.918;2023-04-07T11:57:27;97162.13;;;11.55;55.39
50774;BME280;36745;48.544;8.918;2023-04-07T12:00:57;97164.44;;;11.57;56.14
50774;BME280;36745;48.544;8.918;2023-04-07T12:04:17;97168.31;;;11.81;55.51
50774;BME280;36745;48.544;8.918;2023-04-07T12:07:38;97174.09;;;11.74;55.46
50774;BME280;36745;48.544;8.918;2023-04-07T12:11:02;97189.47;;;12.06;58.25
50774;BME280;36745;48.544;8.918;2023-04-07T12:14:24;97181.16;;;11.75;58.11
50774;BME280;36745;48.544;8.918;2023-04-07T12:17:45;97180.09;;;12.03;59.92
50774;BME280;36745;48.544;8.918;2023-04-07T12:21:07;97188.41;;;12.12;57.14
50774;BME280;36745;48.544;8.918;2023-04-07T12:24:27;97192.16;;;12.28;58.49
50774;BME280;36745;48.544;8.918;2023-04-07T12:27:47;97189.25;;;11.91;57.67
50774;BME280;36745;48.544;8.918;2023-04-07T12:31:07;97187.16;;;11.83;57.51
50774;BME280;36745;48.544;8.918;2023-04-07T12:34:26;97198.19;;;12.04;58.04
50774;BME280;36745;48.544;8.918;2023-04-07T12:37:46;97186.84;;;12.02;57.17
50774;BME280;36745;48.544;8.918;2023-04-07T12:41:06;97191.78;;;12.07;57.62
50774;BME280;36745;48.544;8.918;2023-04-07T12:44:26;97195.50;;;12.13;57.09
50774;BME280;36745;48.544;8.918;2023-04-07T12:47:46;97194.22;;;11.62;57.58
50774;BME280;36745;48.544;8.918;2023-04-07T12:51:07;97189.00;;;11.55;57.20
50774;BME280;36745;48.544;8.918;2023-04-07T12:54:27;97192.97;;;11.97;58.13
50774;BME280;36745;48.544;8.918;2023-04-07T12:57:47;97186.38;;;12.44;57.41
50774;BME280;36745;48.544;8.918;2023-04-07T13:01:06;97179.13;;;12.77;57.00
50774;BME280;36745;48.544;8.918;2023-04-07T13:04:26;97184.91;;;12.61;56.49
50774;BME280;36745;48.544;8.918;2023-04-07T13:07:48;97181.03;;;12.09;57.01
50774;BME280;36745;48.544;8.918;2023-04-07T13:11:08;97193.47;;;11.83;58.45
50774;BME280;36745;48.544;8.918;2023-04-07T13:14:28;97189.00;;;11.76;58.68
50774;BME280;36745;48.544;8.918;2023-04-07T13:17:48;97188.72;;;11.40;59.28
50774;BME280;36745;48.544;8.918;2023-04-07T13:21:09;97191.81;;;11.64;60.27
50774;BME280;36745;48.544;8.918;2023-04-07T13:24:29;97194.88;;;11.88;60.53
50774;BME280;36745;48.544;8.918;2023-04-07T13:27:48;97189.22;;;11.48;60.79
50774;BME280;36745;48.544;8.918;2023-04-07T13:31:08;97198.84;;;11.21;59.86
50774;BME280;36745;48.544;8.918;2023-04-07T13:34:30;97189.59;;;11.15;61.52
50774;BME280;36745;48.544;8.918;2023-04-07T13:37:50;97186.63;;;11.44;60.98
50774;BME280;36745;48.544;8.918;2023-04-07T13:41:10;97191.81;;;11.64;60.99
50774;BME280;36745;48.544;8.918;2023-04-07T13:44:29;97191.97;;;11.82;60.62
50774;BME280;36745;48.544;8.918;2023-04-07T13:47:49;97196.31;;;11.92;59.73
50774;BME280;36745;48.544;8.918;2023-04-07T13:51:09;97194.22;;;12.05;59.78
50774;BME280;36745;48.544;8.918;2023-04-07T13:54:29;97197.75;;;11.62;58.94
50774;BME280;36745;48.544;8.918;2023-04-07T13:58:00;97202.69;;;11.46;59.14
50774;BME280;36745;48.544;8.918;2023-04-07T14:01:46;97196.31;;;11.49;59.61
50774;BME280;36745;48.544;8.918;2023-04-07T14:05:06;97204.78;;;11.54;58.83
50774;BME280;36745;48.544;8.918;2023-04-07T14:08:26;97198.19;;;11.61;59.09
50774;BME280;36745;48.544;8.918;2023-04-07T14:12:02;97197.31;;;11.64;59.01
50774;BME280;36745;48.544;8.918;2023-04-07T14:15:22;97204.41;;;11.65;59.31
50774;BME280;36745;48.544;8.918;2023-04-07T14:18:43;97205.28;;;11.62;59.25
50774;BME280;36745;48.544;8.918;2023-04-07T14:22:03;97197.81;;;11.71;59.11
50774;BME280;36745;48.544;8.918;2023-04-07T14:25:22;97195.38;;;11.95;59.18
50774;BME280;36745;48.544;8.918;2023-04-07T14:28:42;97202.00;;;12.29;57.75
50774;BME280;36745;48.544;8.918;2023-04-07T14:32:02;97197.56;;;12.00;57.26
50774;BME280;36745;48.544;8.918;2023-04-07T14:35:22;97190.84;;;12.10;58.13
50774;BME280;36745;48.544;8.918;2023-04-07T14:38:43;97192.03;;;12.00;56.72
50774;BME280;36745;48.544;8.918;2023-04-07T14:42:02;97196.09;;;12.08;57.22
50774;BME280;36745;48.544;8.918;2023-04-07T14:45:22;97197.38;;;12.26;56.29
50774;BME280;36745;48.544;8.918;2023-04-07T14:48:46;97188.97;;;11.98;56.05
50774;BME280;36745;48.544;8.918;2023-04-07T14:52:12;97190.31;;;12.25;57.15
50774;BME280;36745;48.544;8.918;2023-04-07T14:55:32;97201.53;;;11.99;55.87
50774;BME280;36745;48.544;8.918;2023-04-07T14:58:52;97198.38;;;11.79;56.91
50774;BME280;36745;48.544;8.918;2023-04-07T15:02:12;97207.44;;;11.67;56.58
50774;BME280;36745;48.544;8.918;2023-04-07T15:05:32;97205.69;;;11.73;57.19
50774;BME280;36745;48.544;8.918;2023-04-07T15:08:52;97215.72;;;11.80;56.68
50774;BME280;36745;48.544;8.918;2023-04-07T15:12:12;97217.88;;;11.63;57.42
50774;BME280;36745;48.544;8.918;2023-04-07T15:15:32;97219.91;;;11.71;57.90
50774;BME280;36745;48.544;8.918;2023-04-07T15:18:52;97214.69;;;11.86;57.91
50774;BME280;36745;48.544;8.918;2023-04-07T15:22:12;97222.50;;;11.66;57.32
50774;BME280;36745;48.544;8.918;2023-04-07T15:25:31;97227.06;;;11.60;57.92
50774;BME280;36745;48.544;8.918;2023-04-07T15:28:51;97222.88;;;11.77;58.03
50774;BME280;36745;48.544;8.918;2023-04-07T15:32:11;97228.78;;;11.88;57.79
50774;BME280;36745;48.544;8.918;2023-04-07T15:35:31;97227.84;;;11.82;57.32
50774;BME280;36745;48.544;8.918;2023-04-07T15:38:51;97233.94;;;11.77;57.70
50774;BME280;36745;48.544;8.918;2023-04-07T15:42:10;97237.53;;;11.65;57.77
50774;BME280;36745;48.544;8.918;2023-04-07T15:45:32;97239.25;;;11.50;57.64
50774;BME280;36745;48.544;8.918;2023-04-07T15:48:52;97237.13;;;11.54;58.40
50774;BME280;36745;48.544;8.918;2023-04-07T15:52:12;97238.28;;;11.44;58.72
50774;BME280;36745;48.544;8.918;2023-04-07T15:55:33;97249.97;;;11.48;59.25
50774;BME280;36745;48.544;8.918;2023-04-07T15:58:53;97254.72;;;11.47;59.51
50774;BME280;36745;48.544;8.918;2023-04-07T16:02:13;97257.97;;;11.33;60.00
50774;BME280;36745;48.544;8.918;2023-04-07T16:05:34;97258.28;;;11.35;60.47
50774;BME280;36745;48.544;8.918;2023-04-07T16:08:54;97260.59;;;11.36;60.45
50774;BME280;36745;48.544;8.918;2023-04-07T16:12:14;97267.56;;;11.28;60.38
50774;BME280;36745;48.544;8.918;2023-04-07T16:15:35;97276.41;;;11.23;60.25
50774;BME280;36745;48.544;8.918;2023-04-07T16:18:54;97277.66;;;11.22;60.33
50774;BME280;36745;48.544;8.918;2023-04-07T16:22:14;97279.31;;;11.20;60.22
50774;BME280;36745;48.544;8.918;2023-04-07T16:25:34;97285.25;;;11.18;60.29
50774;BME280;36745;48.544;8.918;2023-04-07T16:28:54;97284.84;;;11.07;61.49
50774;BME280;36745;48.544;8.918;2023-04-07T16:32:14;97287.28;;;11.05;63.24
50774;BME280;36745;48.544;8.918;2023-04-07T16:35:33;97300.31;;;11.05;65.13
50774;BME280;36745;48.544;8.918;2023-04-07T16:38:53;97293.38;;;11.00;66.17
50774;BME280;36745;48.544;8.918;2023-04-07T16:42:14;97292.38;;;10.81;68.17
50774;BME280;36745;48.544;8.918;2023-04-07T16:45:33;97294.69;;;10.83;69.67
50774;BME280;36745;48.544;8.918;2023-04-07T16:48:53;97299.91;;;10.68;70.34
50774;BME280;36745;48.544;8.918;2023-04-07T16:52:13;97310.81;;;10.72;71.45
50774;BME280;36745;48.544;8.918;2023-04-07T16:55:37;97308.69;;;10.76;70.30
50774;BME280;36745;48.544;8.918;2023-04-07T16:58:57;97312.91;;;10.68;70.57
50774;BME280;36745;48.544;8.918;2023-04-07T17:02:17;97316.31;;;10.59;70.66
50774;BME280;36745;48.544;8.918;2023-04-07T17:05:37;97323.13;;;10.55;70.81
50774;BME280;36745;48.544;8.918;2023-04-07T17:08:57;97327.19;;;10.37;72.40
50774;BME280;36745;48.544;8.918;2023-04-07T17:12:16;97336.81;;;10.45;71.49
50774;BME280;36745;48.544;8.918;2023-04-07T17:15:36;97341.84;;;10.34;72.17
50774;BME280;36745;48.544;8.918;2023-04-07T17:18:56;97344.28;;;10.32;72.19
50774;BME280;36745;48.544;8.918;2023-04-07T17:22:17;97352.00;;;10.37;71.88
50774;BME280;36745;48.544;8.918;2023-04-07T17:25:36;97350.75;;;10.26;71.49
50774;BME280;36745;48.544;8.918;2023-04-07T17:28:57;97341.94;;;10.18;71.67
50774;BME280;36745;48.544;8.918;2023-04-07T17:32:16;97349.81;;;10.03;73.33
50774;BME280;36745;48.544;8.918;2023-04-07T17:35:36;97342.25;;;9.91;72.48
50774;BME280;36745;48.544;8.918;2023-04-07T17:38:56;97353.56;;;9.81;72.74
50774;BME280;36745;48.544;8.918;2023-04-07T17:42:16;97347.56;;;9.69;73.23
50774;BME280;36745;48.544;8.918;2023-04-07T17:45:38;97357.66;;;9.60;74.61
50774;BME280;36745;48.544;8.918;2023-04-07T17:48:59;97355.06;;;9.53;73.61
50774;BME280;36745;48.544;8.918;2023-04-07T17:52:18;97356.91;;;9.43;74.89
50774;BME280;36745;48.544;8.918;2023-04-07T17:55:38;97372.72;;;9.55;74.65
50774;BME280;36745;48.544;8.918;2023-04-07T17:58:59;97373.53;;;9.68;75.01
50774;BME280;36745;48.544;8.918;2023-04-07T18:02:19;97372.69;;;9.72;74.87
50774;BME280;36745;48.544;8.918;2023-04-07T18:05:49;97383.44;;;9.66;76.40
50774;BME280;36745;48.544;8.918;2023-04-07T18:09:16;97395.56;;;9.68;75.85
50774;BME280;36745;48.544;8.918;2023-04-07T18:12:36;97398.84;;;9.63;76.37
50774;BME280;36745;48.544;8.918;2023-04-07T18:15:55;97406.16;;;9.70;77.05